HELX  Luxor International Airport

Add Bookmark

Luxor, Egypt

Status IATA
Operational LXR
Latitude Longitude
25° 40' 15" N 32° 42' 23" E
25.671000 32.706600
Local (DST + 2) UTC (GMT + 2)
Sep 20, 2014 12:56 Sep 20, 2014 09:56
Sunrise-Sunset Local UTC
Begin Civil Twilight 06:12 03:12
Sunrise 06:35 03:35
Sunset 06:49 15:49
End Civil Twilight 07:12 16:12

Current Weather

METAR Observed VFR
HELX 200900Z 33004KT CAVOK 33/17 Q1012 NOSIG Sat, Sep 20, 2014 @ 09:00 UTC
(56 Minutes ago)
Visual Flight Rules
Wind Visibility Clouds Conditions
330° at 4 knots (7 kph) 10 km or more
  • Clear skies
  • No significant weather
Temperatures Readings Precipitation
Current Temp 33°C (91°F)
Dewpoint 17°C (63°F)
Humidity 38%
Altimeter 29.88"Hg
Sea Level Pressure 1012mb
Field Elevation 288.71'
None Recorded

Forecast Weather

TAF
TAF HELX 200500Z 2006/2112 30010KT CAVOK
From To
Sat, Sep 20, 2014 @ 06:00 UTC Sun, Sep 21, 2014 @ 12:00 UTC
Wind Visibility Conditions
300° at 10 knots (19 kph) 10 km or more
  • No significant weather

24 Hour Weather History

Loading
-

24 Hour Weather Graphs

Loading
-

CheckWX.com is intended as a tool to help pilots better visualize weather data. It is not intended as a substitute for an official weather briefing obtained from a Flight Service Station. CheckWX.com does not meet the FAA requirements for an official pre-flight weather briefing. Therefore, it's important that pilots still call and obtain an official FSS pre-flight weather briefing.